createdAt,value
2023-05-09T00:01:24.679Z,14.80
2023-05-09T00:03:52.310Z,14.80
2023-05-09T00:06:19.774Z,14.80
2023-05-09T00:08:46.863Z,14.80
2023-05-09T00:11:13.918Z,14.80
2023-05-09T00:13:41.927Z,14.80
2023-05-09T00:16:09.341Z,14.80
2023-05-09T00:18:36.710Z,14.80
2023-05-09T00:21:04.281Z,14.80
2023-05-09T00:23:31.832Z,14.80
2023-05-09T00:25:59.327Z,14.80
2023-05-09T00:28:26.147Z,14.80
2023-05-09T00:30:53.041Z,14.80
2023-05-09T00:33:20.369Z,14.70
2023-05-09T00:35:47.292Z,14.70
2023-05-09T00:38:14.049Z,14.80
2023-05-09T00:40:40.738Z,14.70
2023-05-09T00:43:07.497Z,14.80
2023-05-09T00:45:34.260Z,14.80
2023-05-09T00:48:01.000Z,14.80
2023-05-09T00:50:27.735Z,14.80
2023-05-09T00:52:54.449Z,14.80
2023-05-09T00:55:21.230Z,14.70
2023-05-09T00:57:47.931Z,14.70
2023-05-09T01:00:15.003Z,14.80
2023-05-09T01:02:46.698Z,14.70
2023-05-09T01:05:13.665Z,14.70
2023-05-09T01:07:54.745Z,14.70
2023-05-09T01:10:42.523Z,14.70
2023-05-09T01:13:24.070Z,14.70
2023-05-09T01:16:15.410Z,14.70
2023-05-09T01:19:17.878Z,14.70
2023-05-09T01:21:45.490Z,14.70
2023-05-09T01:24:14.854Z,14.70
2023-05-09T01:26:46.538Z,14.80
2023-05-09T01:29:45.095Z,14.70
2023-05-09T01:32:19.329Z,14.70
2023-05-09T01:34:46.118Z,14.70
2023-05-09T01:37:16.314Z,14.70
2023-05-09T01:39:46.725Z,14.70
2023-05-09T01:42:13.408Z,14.70
2023-05-09T01:44:41.474Z,14.70
2023-05-09T01:47:08.392Z,14.70
2023-05-09T01:49:38.505Z,14.80
2023-05-09T01:52:08.269Z,14.80
2023-05-09T01:54:35.176Z,14.80
2023-05-09T01:57:02.111Z,14.70
2023-05-09T01:59:28.787Z,14.70
2023-05-09T02:01:55.811Z,14.80
2023-05-09T02:04:22.539Z,14.80
2023-05-09T02:06:51.342Z,14.80
2023-05-09T02:09:18.917Z,14.80
2023-05-09T02:11:45.688Z,14.80
2023-05-09T02:14:15.824Z,14.80
2023-05-09T02:16:42.761Z,14.70
2023-05-09T02:19:09.579Z,14.70
2023-05-09T02:21:36.291Z,14.70
2023-05-09T02:24:03.581Z,14.70
2023-05-09T02:26:30.728Z,14.70
2023-05-09T02:28:57.460Z,14.70
2023-05-09T02:31:24.646Z,14.70
2023-05-09T02:33:51.800Z,14.70
2023-05-09T02:36:18.603Z,14.70
2023-05-09T02:38:45.532Z,14.60
2023-05-09T02:41:15.963Z,14.60
2023-05-09T02:43:42.751Z,14.70
2023-05-09T02:46:10.220Z,14.70
2023-05-09T02:48:37.462Z,14.60
2023-05-09T02:51:04.501Z,14.60
2023-05-09T02:53:31.272Z,14.60
2023-05-09T02:55:58.594Z,14.60
2023-05-09T02:58:25.424Z,14.60
2023-05-09T03:00:52.162Z,14.60
2023-05-09T03:03:19.146Z,14.70
2023-05-09T03:05:46.361Z,14.60
2023-05-09T03:08:13.138Z,14.60
2023-05-09T03:10:39.850Z,14.60
2023-05-09T03:13:06.584Z,14.60
2023-05-09T03:15:33.302Z,14.60
2023-05-09T03:18:00.110Z,14.60
2023-05-09T03:20:27.640Z,14.60
2023-05-09T03:22:55.166Z,14.50
2023-05-09T03:25:22.579Z,14.50
2023-05-09T03:27:49.331Z,14.50
2023-05-09T03:30:16.174Z,14.50
2023-05-09T03:32:43.603Z,14.50
2023-05-09T03:35:10.395Z,14.50
2023-05-09T03:37:37.170Z,14.60
2023-05-09T03:40:04.492Z,14.50
2023-05-09T03:42:31.163Z,14.60
2023-05-09T03:44:58.105Z,14.60
2023-05-09T03:47:24.798Z,14.50
2023-05-09T03:49:51.505Z,14.50
2023-05-09T03:52:18.356Z,14.60
2023-05-09T03:54:45.015Z,14.50
2023-05-09T03:57:11.719Z,14.60
2023-05-09T03:59:38.436Z,14.50
2023-05-09T04:02:05.869Z,14.50
2023-05-09T04:04:32.889Z,14.50
2023-05-09T04:06:59.576Z,14.50
2023-05-09T04:09:27.312Z,14.50
2023-05-09T04:11:54.001Z,14.50
2023-05-09T04:14:20.696Z,14.50
2023-05-09T04:16:47.428Z,14.50
2023-05-09T04:19:14.219Z,14.50
2023-05-09T04:21:41.001Z,14.50
2023-05-09T04:24:07.886Z,14.50
2023-05-09T04:26:38.518Z,14.50
2023-05-09T04:29:05.522Z,14.50
2023-05-09T04:31:32.753Z,14.50
2023-05-09T04:33:59.586Z,14.40
2023-05-09T04:36:27.544Z,14.40
2023-05-09T04:38:54.224Z,14.40
2023-05-09T04:41:21.434Z,14.40
2023-05-09T04:43:48.189Z,14.40
2023-05-09T04:46:14.959Z,14.40
2023-05-09T04:48:41.665Z,14.40
2023-05-09T04:51:08.328Z,14.40
2023-05-09T04:53:34.966Z,14.40
2023-05-09T04:56:01.709Z,14.40
2023-05-09T04:58:28.467Z,14.40
2023-05-09T05:00:55.230Z,14.30
2023-05-09T05:03:21.889Z,14.30
2023-05-09T05:05:48.679Z,14.30
2023-05-09T05:08:15.482Z,14.30
2023-05-09T05:10:42.171Z,14.30
2023-05-09T05:13:08.875Z,14.30
2023-05-09T05:15:35.598Z,14.40
2023-05-09T05:18:02.391Z,14.40
2023-05-09T05:20:29.079Z,14.40
2023-05-09T05:22:55.902Z,14.40
2023-05-09T05:25:22.651Z,14.40
2023-05-09T05:27:49.436Z,14.40
2023-05-09T05:30:16.218Z,14.40
2023-05-09T05:32:43.762Z,14.50
2023-05-09T05:35:30.769Z,14.50
2023-05-09T05:37:57.469Z,14.50
2023-05-09T05:40:24.174Z,14.50
2023-05-09T05:42:50.899Z,14.50
2023-05-09T05:45:17.840Z,14.60
2023-05-09T05:47:44.669Z,14.60
2023-05-09T05:50:12.153Z,14.60
2023-05-09T05:52:39.603Z,14.60
2023-05-09T05:55:06.593Z,14.50
2023-05-09T05:57:34.544Z,14.60
2023-05-09T06:00:01.444Z,14.60
2023-05-09T06:02:28.196Z,14.70
2023-05-09T06:04:56.054Z,14.70
2023-05-09T06:07:22.945Z,14.80
2023-05-09T06:09:49.645Z,14.80
2023-05-09T06:12:17.099Z,14.80
2023-05-09T06:14:43.929Z,14.90
2023-05-09T06:17:10.666Z,14.90
2023-05-09T06:19:37.763Z,14.90
2023-05-09T06:22:04.473Z,14.90
2023-05-09T06:24:35.792Z,14.90
2023-05-09T06:27:03.597Z,14.90
2023-05-09T06:29:31.118Z,14.90
2023-05-09T06:31:57.875Z,15.00
2023-05-09T06:34:25.074Z,15.00
2023-05-09T06:36:51.795Z,15.00
2023-05-09T06:39:18.574Z,15.00
2023-05-09T06:41:45.275Z,15.10
2023-05-09T06:44:12.273Z,15.10
2023-05-09T06:46:39.026Z,15.20
2023-05-09T06:49:08.356Z,15.20
2023-05-09T06:51:34.934Z,15.20
2023-05-09T06:54:01.694Z,15.10
2023-05-09T06:56:28.419Z,15.20
2023-05-09T06:58:55.177Z,15.20
2023-05-09T07:01:21.957Z,15.20
2023-05-09T07:03:48.729Z,15.20
2023-05-09T07:06:15.807Z,15.30
2023-05-09T07:08:42.481Z,15.30
2023-05-09T07:11:09.184Z,15.40
2023-05-09T07:13:36.512Z,15.40
2023-05-09T07:16:03.830Z,15.50
2023-05-09T07:18:30.778Z,15.60
2023-05-09T07:20:57.523Z,15.60
2023-05-09T07:23:26.328Z,15.70
2023-05-09T07:25:57.803Z,15.80
2023-05-09T07:28:25.522Z,15.90
2023-05-09T07:30:52.488Z,15.90
2023-05-09T07:33:19.314Z,16.00
2023-05-09T07:35:46.045Z,16.00
2023-05-09T07:38:13.420Z,16.10
2023-05-09T07:40:40.958Z,16.20
2023-05-09T07:43:07.708Z,16.30
2023-05-09T07:45:34.779Z,16.40
2023-05-09T07:48:01.687Z,16.40
2023-05-09T07:50:28.441Z,16.40
2023-05-09T07:52:55.679Z,16.40
2023-05-09T07:55:23.164Z,16.30
2023-05-09T07:57:49.839Z,16.40
2023-05-09T08:00:17.457Z,16.50
2023-05-09T08:02:44.300Z,16.50
2023-05-09T08:05:11.868Z,16.60
2023-05-09T08:07:38.705Z,16.70
2023-05-09T08:10:05.934Z,16.80
2023-05-09T08:12:32.792Z,16.90
2023-05-09T08:15:00.123Z,17.00
2023-05-09T08:17:27.256Z,17.00
2023-05-09T08:19:54.008Z,17.00
2023-05-09T08:22:21.342Z,17.00
2023-05-09T08:24:48.102Z,17.00
2023-05-09T08:27:15.570Z,17.10
2023-05-09T08:29:42.446Z,17.20
2023-05-09T08:32:09.554Z,17.20
2023-05-09T08:34:36.494Z,17.20
2023-05-09T08:37:04.137Z,17.30
2023-05-09T08:39:31.346Z,17.40
2023-05-09T08:42:01.960Z,17.50
2023-05-09T08:44:29.741Z,17.60
2023-05-09T08:47:00.543Z,17.60
2023-05-09T08:49:28.112Z,17.70
2023-05-09T08:51:55.531Z,18.00
2023-05-09T08:54:23.282Z,18.10
2023-05-09T08:56:50.790Z,18.30
2023-05-09T08:59:18.021Z,18.50
2023-05-09T09:01:45.145Z,18.60
2023-05-09T09:04:12.012Z,18.50
2023-05-09T09:06:39.113Z,18.30
2023-05-09T09:09:07.140Z,18.30
2023-05-09T09:11:34.178Z,18.30
2023-05-09T09:14:02.240Z,18.20
2023-05-09T09:16:29.328Z,18.30
2023-05-09T09:18:59.216Z,18.30
2023-05-09T09:21:26.292Z,18.10
2023-05-09T09:23:53.437Z,18.00
2023-05-09T09:26:20.166Z,18.00
2023-05-09T09:28:47.252Z,18.00
2023-05-09T09:31:21.320Z,18.00
2023-05-09T09:33:48.462Z,18.00
2023-05-09T09:36:15.179Z,18.20
2023-05-09T09:38:43.855Z,18.30
2023-05-09T09:41:11.733Z,18.20
2023-05-09T09:43:38.582Z,18.10
2023-05-09T09:46:05.615Z,18.20
2023-05-09T09:48:35.580Z,18.20
2023-05-09T09:51:12.658Z,18.30
2023-05-09T09:53:40.657Z,18.30
2023-05-09T09:56:07.905Z,18.20
2023-05-09T09:58:35.693Z,18.20
2023-05-09T10:01:14.103Z,18.30
2023-05-09T10:03:42.669Z,18.20
2023-05-09T10:06:13.556Z,18.20
2023-05-09T10:08:41.432Z,18.20
2023-05-09T10:11:15.504Z,18.30
2023-05-09T10:13:42.583Z,18.40
2023-05-09T10:16:10.061Z,18.50
2023-05-09T10:18:37.270Z,18.70
2023-05-09T10:21:05.275Z,18.80
2023-05-09T10:23:33.040Z,18.90
2023-05-09T10:26:17.772Z,19.00
2023-05-09T10:28:45.993Z,19.00
2023-05-09T10:31:17.219Z,19.50
2023-05-09T10:33:48.705Z,19.80
2023-05-09T10:36:17.430Z,20.10
2023-05-09T10:38:47.335Z,20.20
2023-05-09T10:41:14.480Z,20.00
2023-05-09T10:43:41.397Z,19.70
2023-05-09T10:46:08.086Z,19.50
2023-05-09T10:48:35.531Z,19.40
2023-05-09T10:51:05.580Z,19.20
2023-05-09T10:53:45.053Z,19.20
2023-05-09T10:56:25.166Z,19.20
2023-05-09T10:58:51.974Z,19.30
2023-05-09T11:01:39.132Z,19.50
2023-05-09T11:04:10.099Z,19.60
2023-05-09T11:06:47.561Z,19.60
2023-05-09T11:09:33.304Z,19.70
2023-05-09T11:12:01.727Z,19.70
2023-05-09T11:14:53.955Z,19.90
2023-05-09T11:17:26.745Z,20.00
2023-05-09T11:19:53.519Z,20.20
2023-05-09T11:22:26.308Z,20.20
2023-05-09T11:25:00.539Z,20.20
2023-05-09T11:27:28.587Z,20.10
2023-05-09T11:29:56.796Z,19.90
2023-05-09T11:32:28.218Z,19.80
2023-05-09T11:35:09.524Z,19.70
2023-05-09T11:38:04.423Z,19.50
2023-05-09T11:40:32.092Z,19.50
2023-05-09T11:42:59.385Z,19.30
2023-05-09T11:45:30.673Z,19.30
2023-05-09T11:47:57.831Z,19.10
2023-05-09T11:50:24.985Z,19.10
2023-05-09T11:52:51.960Z,19.00
2023-05-09T11:55:19.958Z,19.00
2023-05-09T11:57:51.202Z,18.90
2023-05-09T12:00:22.296Z,19.00
2023-05-09T12:02:50.961Z,19.00
2023-05-09T12:05:20.299Z,19.10
2023-05-09T12:07:47.704Z,19.40
2023-05-09T12:10:20.006Z,19.50
2023-05-09T12:12:50.481Z,19.50
2023-05-09T12:15:18.286Z,19.70
2023-05-09T12:17:52.036Z,19.70
2023-05-09T12:20:19.377Z,19.70
2023-05-09T12:22:46.104Z,19.80
2023-05-09T12:25:12.947Z,19.90
2023-05-09T12:27:40.693Z,20.00
2023-05-09T12:30:10.179Z,20.10
2023-05-09T12:32:39.207Z,20.20
2023-05-09T12:35:10.883Z,20.30
2023-05-09T12:37:37.841Z,20.50
2023-05-09T12:40:15.924Z,20.70
2023-05-09T12:42:46.361Z,20.80
2023-05-09T12:45:14.693Z,20.90
2023-05-09T12:47:42.123Z,20.80
2023-05-09T12:50:10.615Z,20.80
2023-05-09T12:52:54.601Z,20.90
2023-05-09T12:55:29.612Z,20.80
2023-05-09T12:58:01.346Z,20.70
2023-05-09T13:00:28.558Z,20.80
2023-05-09T13:02:55.451Z,20.80
2023-05-09T13:05:22.891Z,20.90
2023-05-09T13:07:52.128Z,21.10
2023-05-09T13:10:23.094Z,21.20
2023-05-09T13:12:50.036Z,21.30
2023-05-09T13:15:19.891Z,21.40
2023-05-09T13:17:47.586Z,21.40
2023-05-09T13:20:14.460Z,21.30
2023-05-09T13:22:41.931Z,21.20
2023-05-09T13:25:09.096Z,21.10
2023-05-09T13:27:35.867Z,21.10
2023-05-09T13:30:03.653Z,21.10
2023-05-09T13:32:31.634Z,21.10
2023-05-09T13:34:58.370Z,21.30
2023-05-09T13:37:26.756Z,21.60
2023-05-09T13:39:54.633Z,21.70
2023-05-09T13:42:21.611Z,21.60
2023-05-09T13:44:48.324Z,21.50
2023-05-09T13:47:15.036Z,21.40
2023-05-09T13:49:42.039Z,21.30
2023-05-09T13:52:09.285Z,21.20
2023-05-09T13:54:36.137Z,21.20
2023-05-09T13:57:05.636Z,21.10
2023-05-09T13:59:32.486Z,21.10
2023-05-09T14:02:00.381Z,21.10
2023-05-09T14:04:27.776Z,21.10
2023-05-09T14:06:55.180Z,21.00
2023-05-09T14:09:24.672Z,20.80
2023-05-09T14:11:52.041Z,20.50
2023-05-09T14:14:22.123Z,20.40
2023-05-09T14:16:49.081Z,20.30
2023-05-09T14:19:16.115Z,20.20
2023-05-09T14:21:43.971Z,20.00
2023-05-09T14:24:14.991Z,19.90
2023-05-09T14:26:42.717Z,19.60
2023-05-09T14:29:09.491Z,19.50
2023-05-09T14:31:37.005Z,19.40
2023-05-09T14:34:05.269Z,19.40
2023-05-09T14:36:35.098Z,19.30
2023-05-09T14:39:02.335Z,19.20
2023-05-09T14:41:29.065Z,19.30
2023-05-09T14:43:55.865Z,19.30
2023-05-09T14:46:24.862Z,19.40
2023-05-09T14:48:52.787Z,19.40
2023-05-09T14:51:19.608Z,19.40
2023-05-09T14:53:47.228Z,19.40
2023-05-09T14:56:14.275Z,19.30
2023-05-09T14:58:41.189Z,19.20
2023-05-09T15:01:08.176Z,19.20
2023-05-09T15:03:34.956Z,19.20
2023-05-09T15:06:02.051Z,19.10
2023-05-09T15:08:28.852Z,19.10
2023-05-09T15:10:57.463Z,19.10
2023-05-09T15:13:24.221Z,19.00
2023-05-09T15:15:51.080Z,19.00
2023-05-09T15:18:18.566Z,19.10
2023-05-09T15:20:45.416Z,19.00
2023-05-09T15:23:13.118Z,19.00
2023-05-09T15:25:43.089Z,18.90
2023-05-09T15:28:09.875Z,18.90
2023-05-09T15:30:38.781Z,18.80
2023-05-09T15:33:05.785Z,18.80
2023-05-09T15:35:32.569Z,18.70
2023-05-09T15:37:59.723Z,18.70
2023-05-09T15:40:27.416Z,18.40
2023-05-09T15:42:54.148Z,18.40
2023-05-09T15:45:21.019Z,18.30
2023-05-09T15:47:48.314Z,18.20
2023-05-09T15:50:15.197Z,18.00
2023-05-09T15:52:42.285Z,17.80
2023-05-09T15:55:09.884Z,17.80
2023-05-09T15:57:36.628Z,17.70
2023-05-09T16:00:05.570Z,17.50
2023-05-09T16:02:32.368Z,17.30
2023-05-09T16:04:59.198Z,17.10
2023-05-09T16:07:26.304Z,16.90
2023-05-09T16:09:53.010Z,16.80
2023-05-09T16:12:19.738Z,16.80
2023-05-09T16:14:46.448Z,16.80
2023-05-09T16:17:13.433Z,16.80
2023-05-09T16:19:41.015Z,16.80
2023-05-09T16:22:07.848Z,16.70
2023-05-09T16:24:34.570Z,16.80
2023-05-09T16:27:01.253Z,16.80
2023-05-09T16:29:28.531Z,16.80
2023-05-09T16:31:55.365Z,16.90
2023-05-09T16:34:22.174Z,17.00
2023-05-09T16:36:48.992Z,17.00
2023-05-09T16:39:16.086Z,17.20
2023-05-09T16:41:43.180Z,17.20
2023-05-09T16:44:10.203Z,17.30
2023-05-09T16:46:36.913Z,17.40
2023-05-09T16:49:03.663Z,17.50
2023-05-09T16:51:30.662Z,17.60
2023-05-09T16:53:57.313Z,17.70
2023-05-09T16:56:24.415Z,17.80
2023-05-09T16:58:51.671Z,17.90
2023-05-09T17:01:18.691Z,18.00
2023-05-09T17:03:45.595Z,18.10
2023-05-09T17:06:12.628Z,18.10
2023-05-09T17:08:39.404Z,18.20
2023-05-09T17:11:06.136Z,18.30
2023-05-09T17:13:32.816Z,18.40
2023-05-09T17:15:59.870Z,18.40
2023-05-09T17:18:36.667Z,18.40
2023-05-09T17:21:04.990Z,18.50
2023-05-09T17:23:31.910Z,18.50
2023-05-09T17:25:58.801Z,18.50
2023-05-09T17:28:25.652Z,18.50
2023-05-09T17:30:53.020Z,18.50
2023-05-09T17:33:20.717Z,18.60
2023-05-09T17:35:49.628Z,18.60
2023-05-09T17:38:17.351Z,18.60
2023-05-09T17:40:44.378Z,18.50
2023-05-09T17:43:11.470Z,18.40
2023-05-09T17:45:38.224Z,18.40
2023-05-09T17:48:05.019Z,18.30
2023-05-09T17:50:32.976Z,18.30
2023-05-09T17:53:00.435Z,18.20
2023-05-09T17:55:27.520Z,18.00
2023-05-09T17:57:54.477Z,17.90
2023-05-09T18:00:22.027Z,17.70
2023-05-09T18:02:50.935Z,17.70
2023-05-09T18:05:18.508Z,17.60
2023-05-09T18:07:45.534Z,17.60
2023-05-09T18:10:12.596Z,17.60
2023-05-09T18:12:39.453Z,17.50
2023-05-09T18:15:07.115Z,17.20
2023-05-09T18:17:34.125Z,16.90
2023-05-09T18:20:01.095Z,16.60
2023-05-09T18:22:27.880Z,16.50
2023-05-09T18:24:54.609Z,16.40
2023-05-09T18:27:21.997Z,16.20
2023-05-09T18:29:48.872Z,16.10
2023-05-09T18:32:17.542Z,16.00
2023-05-09T18:34:44.788Z,15.90
2023-05-09T18:37:11.783Z,15.80
2023-05-09T18:39:38.523Z,15.70
2023-05-09T18:42:06.539Z,15.50
2023-05-09T18:44:33.508Z,15.50
2023-05-09T18:47:00.600Z,15.40
2023-05-09T18:49:27.412Z,15.20
2023-05-09T18:51:54.981Z,15.10
2023-05-09T18:54:21.765Z,15.00
2023-05-09T18:56:49.624Z,15.00
2023-05-09T18:59:17.358Z,15.00
2023-05-09T19:01:44.188Z,15.00
2023-05-09T19:04:11.035Z,14.90
2023-05-09T19:06:37.871Z,14.90
2023-05-09T19:09:04.754Z,14.80
2023-05-09T19:11:31.681Z,14.80
2023-05-09T19:13:58.539Z,14.80
2023-05-09T19:16:26.649Z,14.80
2023-05-09T19:18:57.823Z,14.80
2023-05-09T19:21:25.591Z,14.90
2023-05-09T19:23:52.463Z,14.80
2023-05-09T19:26:19.535Z,14.90
2023-05-09T19:28:46.918Z,14.90
2023-05-09T19:31:14.683Z,14.80
2023-05-09T19:33:42.811Z,14.80
2023-05-09T19:36:09.468Z,14.90
2023-05-09T19:38:36.142Z,14.80
2023-05-09T19:41:02.873Z,14.80
2023-05-09T19:43:29.542Z,14.90
2023-05-09T19:45:56.234Z,14.80
2023-05-09T19:48:22.931Z,14.80
2023-05-09T19:50:49.638Z,14.80
2023-05-09T19:53:16.310Z,14.80
2023-05-09T19:55:46.834Z,14.80
2023-05-09T19:58:17.501Z,14.70
2023-05-09T20:00:44.787Z,14.70
2023-05-09T20:03:11.725Z,14.70
2023-05-09T20:05:44.504Z,14.70
2023-05-09T20:08:11.328Z,14.60
2023-05-09T20:10:38.061Z,14.50
2023-05-09T20:13:04.863Z,14.50
2023-05-09T20:15:31.769Z,14.40
2023-05-09T20:17:58.644Z,14.30
2023-05-09T20:20:25.451Z,14.20
2023-05-09T20:22:52.241Z,14.20
2023-05-09T20:25:19.070Z,14.10
2023-05-09T20:27:45.819Z,14.10
2023-05-09T20:30:13.075Z,14.00
2023-05-09T20:32:40.046Z,14.00
2023-05-09T20:35:07.065Z,13.90
2023-05-09T20:37:33.885Z,13.90
2023-05-09T20:40:01.480Z,13.80
2023-05-09T20:42:28.133Z,13.80
2023-05-09T20:44:55.144Z,13.80
2023-05-09T20:47:21.881Z,13.80
2023-05-09T20:49:48.585Z,13.80
2023-05-09T20:52:15.408Z,13.80
2023-05-09T20:54:42.160Z,13.70
2023-05-09T20:57:08.915Z,13.70
2023-05-09T20:59:35.625Z,13.70
2023-05-09T21:02:02.759Z,13.70
2023-05-09T21:04:29.482Z,13.80
2023-05-09T21:06:56.221Z,13.80
2023-05-09T21:09:22.908Z,13.90
2023-05-09T21:11:49.555Z,13.90
2023-05-09T21:14:16.230Z,13.90
2023-05-09T21:16:43.948Z,14.00
2023-05-09T21:19:10.842Z,13.90
2023-05-09T21:21:37.526Z,13.90
2023-05-09T21:24:08.918Z,13.90
2023-05-09T21:26:36.372Z,13.90
2023-05-09T21:29:03.164Z,13.80
2023-05-09T21:31:29.900Z,13.80
2023-05-09T21:33:56.630Z,13.80
2023-05-09T21:36:23.284Z,13.80
2023-05-09T21:38:50.077Z,13.90
2023-05-09T21:41:16.933Z,13.90
2023-05-09T21:43:43.657Z,13.90
2023-05-09T21:46:10.423Z,13.90
2023-05-09T21:48:37.110Z,13.90
2023-05-09T21:51:04.109Z,13.90
2023-05-09T21:53:30.797Z,13.90
2023-05-09T21:55:57.447Z,13.90
2023-05-09T21:58:24.165Z,13.80
2023-05-09T22:00:50.848Z,13.80
2023-05-09T22:03:17.589Z,13.80
2023-05-09T22:05:44.385Z,13.80
2023-05-09T22:08:11.189Z,13.80
2023-05-09T22:10:38.577Z,13.80
2023-05-09T22:13:05.409Z,13.70
2023-05-09T22:15:32.560Z,13.70
2023-05-09T22:17:59.409Z,13.60
2023-05-09T22:20:26.204Z,13.70
2023-05-09T22:22:53.048Z,13.60
2023-05-09T22:25:19.733Z,13.60
2023-05-09T22:27:46.557Z,13.60
2023-05-09T22:30:13.708Z,13.60
2023-05-09T22:32:41.940Z,13.50
2023-05-09T22:35:09.140Z,13.50
2023-05-09T22:37:35.974Z,13.50
2023-05-09T22:40:03.153Z,13.40
2023-05-09T22:42:29.993Z,13.40
2023-05-09T22:44:57.365Z,13.40
2023-05-09T22:47:24.189Z,13.30
2023-05-09T22:49:50.974Z,13.30
2023-05-09T22:52:18.221Z,13.30
2023-05-09T22:54:45.033Z,13.20
2023-05-09T22:57:12.021Z,13.20
2023-05-09T22:59:38.818Z,13.20
2023-05-09T23:02:05.956Z,13.20
2023-05-09T23:04:32.693Z,13.10
2023-05-09T23:06:59.523Z,13.10
2023-05-09T23:09:26.362Z,13.10
2023-05-09T23:11:53.126Z,13.00
2023-05-09T23:14:19.851Z,13.00
2023-05-09T23:16:46.735Z,13.00
2023-05-09T23:19:13.414Z,13.00
2023-05-09T23:21:40.110Z,13.00
2023-05-09T23:24:07.728Z,13.00
2023-05-09T23:26:34.527Z,12.90
2023-05-09T23:29:01.250Z,12.90
2023-05-09T23:31:28.148Z,12.80
2023-05-09T23:33:54.923Z,12.80
2023-05-09T23:36:21.619Z,12.80
2023-05-09T23:38:48.410Z,12.80
2023-05-09T23:41:15.102Z,12.70
2023-05-09T23:43:42.075Z,12.70
2023-05-09T23:46:08.936Z,12.60
2023-05-09T23:48:35.687Z,12.60
2023-05-09T23:51:02.427Z,12.60
2023-05-09T23:53:29.402Z,12.60
2023-05-09T23:55:56.078Z,12.50
2023-05-09T23:58:22.972Z,12.50
